sensor_id;sensor_type;location;lat;lon;timestamp;temperature;humidity
81047;SHT31;70539;51.970;5.670;2023-08-21T00:00:55;23.5;55.1
81047;SHT31;70539;51.970;5.670;2023-08-21T00:03:23;23.5;55.0
81047;SHT31;70539;51.970;5.670;2023-08-21T00:05:52;23.4;54.8
81047;SHT31;70539;51.970;5.670;2023-08-21T00:08:20;23.4;54.4
81047;SHT31;70539;51.970;5.670;2023-08-21T00:10:49;23.4;54.2
81047;SHT31;70539;51.970;5.670;2023-08-21T00:13:17;23.3;54.3
81047;SHT31;70539;51.970;5.670;2023-08-21T00:15:47;23.3;54.3
81047;SHT31;70539;51.970;5.670;2023-08-21T00:18:16;23.3;55.3
81047;SHT31;70539;51.970;5.670;2023-08-21T00:20:45;23.3;54.7
81047;SHT31;70539;51.970;5.670;2023-08-21T00:23:13;23.2;55.0
81047;SHT31;70539;51.970;5.670;2023-08-21T00:25:47;23.2;55.5
81047;SHT31;70539;51.970;5.670;2023-08-21T00:28:16;23.2;56.2
81047;SHT31;70539;51.970;5.670;2023-08-21T00:30:45;23.2;56.0
81047;SHT31;70539;51.970;5.670;2023-08-21T00:33:13;23.2;56.9
81047;SHT31;70539;51.970;5.670;2023-08-21T00:35:42;23.2;55.9
81047;SHT31;70539;51.970;5.670;2023-08-21T00:38:11;23.2;56.7
81047;SHT31;70539;51.970;5.670;2023-08-21T00:40:39;23.2;56.7
81047;SHT31;70539;51.970;5.670;2023-08-21T00:43:08;23.2;55.7
81047;SHT31;70539;51.970;5.670;2023-08-21T00:45:38;23.2;55.8
81047;SHT31;70539;51.970;5.670;2023-08-21T00:48:10;23.2;55.2
81047;SHT31;70539;51.970;5.670;2023-08-21T00:50:40;23.2;55.5
81047;SHT31;70539;51.970;5.670;2023-08-21T00:53:10;23.2;56.2
81047;SHT31;70539;51.970;5.670;2023-08-21T00:55:40;23.2;56.7
81047;SHT31;70539;51.970;5.670;2023-08-21T00:58:11;23.1;57.2
81047;SHT31;70539;51.970;5.670;2023-08-21T01:00:42;23.1;56.0
81047;SHT31;70539;51.970;5.670;2023-08-21T01:03:14;23.0;57.8
81047;SHT31;70539;51.970;5.670;2023-08-21T01:05:43;23.0;55.9
81047;SHT31;70539;51.970;5.670;2023-08-21T01:08:16;22.9;56.4
81047;SHT31;70539;51.970;5.670;2023-08-21T01:10:52;22.8;57.5
81047;SHT31;70539;51.970;5.670;2023-08-21T01:13:33;22.8;57.5
81047;SHT31;70539;51.970;5.670;2023-08-21T01:16:06;22.8;57.4
81047;SHT31;70539;51.970;5.670;2023-08-21T01:18:37;22.7;56.9
81047;SHT31;70539;51.970;5.670;2023-08-21T01:21:08;22.7;57.5
81047;SHT31;70539;51.970;5.670;2023-08-21T01:23:37;22.7;57.6
81047;SHT31;70539;51.970;5.670;2023-08-21T01:26:08;22.7;57.0
81047;SHT31;70539;51.970;5.670;2023-08-21T01:28:37;22.7;56.7
81047;SHT31;70539;51.970;5.670;2023-08-21T01:31:19;22.7;56.9
81047;SHT31;70539;51.970;5.670;2023-08-21T01:33:46;22.7;57.6
81047;SHT31;70539;51.970;5.670;2023-08-21T01:36:16;22.7;58.3
81047;SHT31;70539;51.970;5.670;2023-08-21T01:38:45;22.7;57.6
81047;SHT31;70539;51.970;5.670;2023-08-21T01:41:14;22.7;57.6
81047;SHT31;70539;51.970;5.670;2023-08-21T01:43:43;22.6;57.6
81047;SHT31;70539;51.970;5.670;2023-08-21T01:46:12;22.6;58.3
81047;SHT31;70539;51.970;5.670;2023-08-21T01:48:41;22.6;58.5
81047;SHT31;70539;51.970;5.670;2023-08-21T01:51:10;22.5;58.7
81047;SHT31;70539;51.970;5.670;2023-08-21T01:53:38;22.5;58.5
81047;SHT31;70539;51.970;5.670;2023-08-21T01:56:07;22.4;58.9
81047;SHT31;70539;51.970;5.670;2023-08-21T01:58:36;22.4;59.1
81047;SHT31;70539;51.970;5.670;2023-08-21T02:01:04;22.4;59.2
81047;SHT31;70539;51.970;5.670;2023-08-21T02:03:33;22.4;59.7
81047;SHT31;70539;51.970;5.670;2023-08-21T02:06:02;22.3;60.4
81047;SHT31;70539;51.970;5.670;2023-08-21T02:08:35;22.3;59.7
81047;SHT31;70539;51.970;5.670;2023-08-21T02:11:05;22.3;59.1
81047;SHT31;70539;51.970;5.670;2023-08-21T02:13:33;22.2;58.6
81047;SHT31;70539;51.970;5.670;2023-08-21T02:16:03;22.2;59.0
81047;SHT31;70539;51.970;5.670;2023-08-21T02:18:31;22.2;59.5
81047;SHT31;70539;51.970;5.670;2023-08-21T02:21:00;22.2;59.6
81047;SHT31;70539;51.970;5.670;2023-08-21T02:23:29;22.1;60.2
81047;SHT31;70539;51.970;5.670;2023-08-21T02:25:58;22.1;60.2
81047;SHT31;70539;51.970;5.670;2023-08-21T02:28:27;22.1;60.3
81047;SHT31;70539;51.970;5.670;2023-08-21T02:30:56;22.1;59.7
81047;SHT31;70539;51.970;5.670;2023-08-21T02:33:24;22.1;59.7
81047;SHT31;70539;51.970;5.670;2023-08-21T02:35:52;22.1;60.2
81047;SHT31;70539;51.970;5.670;2023-08-21T02:38:23;22.1;59.6
81047;SHT31;70539;51.970;5.670;2023-08-21T02:40:51;22.1;59.5
81047;SHT31;70539;51.970;5.670;2023-08-21T02:43:22;22.1;59.7
81047;SHT31;70539;51.970;5.670;2023-08-21T02:45:52;22.1;60.1
81047;SHT31;70539;51.970;5.670;2023-08-21T02:48:20;22.2;59.9
81047;SHT31;70539;51.970;5.670;2023-08-21T02:50:49;22.2;59.7
81047;SHT31;70539;51.970;5.670;2023-08-21T02:53:17;22.2;58.6
81047;SHT31;70539;51.970;5.670;2023-08-21T02:55:47;22.3;59.8
81047;SHT31;70539;51.970;5.670;2023-08-21T02:58:15;22.3;59.2
81047;SHT31;70539;51.970;5.670;2023-08-21T03:00:43;22.3;58.7
81047;SHT31;70539;51.970;5.670;2023-08-21T03:03:12;22.4;59.7
81047;SHT31;70539;51.970;5.670;2023-08-21T03:05:40;22.4;59.1
81047;SHT31;70539;51.970;5.670;2023-08-21T03:08:09;22.5;60.2
81047;SHT31;70539;51.970;5.670;2023-08-21T03:10:37;22.5;60.4
81047;SHT31;70539;51.970;5.670;2023-08-21T03:13:08;22.6;60.7
81047;SHT31;70539;51.970;5.670;2023-08-21T03:15:36;22.6;58.9
81047;SHT31;70539;51.970;5.670;2023-08-21T03:18:05;22.6;58.7
81047;SHT31;70539;51.970;5.670;2023-08-21T03:20:34;22.6;59.2
81047;SHT31;70539;51.970;5.670;2023-08-21T03:23:03;22.6;58.5
81047;SHT31;70539;51.970;5.670;2023-08-21T03:25:31;22.6;58.7
81047;SHT31;70539;51.970;5.670;2023-08-21T03:28:00;22.6;58.8
81047;SHT31;70539;51.970;5.670;2023-08-21T03:30:28;22.6;58.8
81047;SHT31;70539;51.970;5.670;2023-08-21T03:32:57;22.6;59.0
81047;SHT31;70539;51.970;5.670;2023-08-21T03:35:25;22.6;58.5
81047;SHT31;70539;51.970;5.670;2023-08-21T03:37:53;22.6;59.7
81047;SHT31;70539;51.970;5.670;2023-08-21T03:40:22;22.6;58.3
81047;SHT31;70539;51.970;5.670;2023-08-21T03:42:50;22.5;59.0
81047;SHT31;70539;51.970;5.670;2023-08-21T03:45:19;22.5;59.3
81047;SHT31;70539;51.970;5.670;2023-08-21T03:47:47;22.5;58.7
81047;SHT31;70539;51.970;5.670;2023-08-21T03:50:16;22.4;59.4
81047;SHT31;70539;51.970;5.670;2023-08-21T03:52:44;22.4;58.5
81047;SHT31;70539;51.970;5.670;2023-08-21T03:55:13;22.3;58.4
81047;SHT31;70539;51.970;5.670;2023-08-21T03:57:44;22.3;58.8
81047;SHT31;70539;51.970;5.670;2023-08-21T04:00:13;22.2;60.0
81047;SHT31;70539;51.970;5.670;2023-08-21T04:02:42;22.1;61.1
81047;SHT31;70539;51.970;5.670;2023-08-21T04:05:11;22.1;60.7
81047;SHT31;70539;51.970;5.670;2023-08-21T04:07:39;22.1;61.7
81047;SHT31;70539;51.970;5.670;2023-08-21T04:10:08;22.0;61.2
81047;SHT31;70539;51.970;5.670;2023-08-21T04:12:37;22.0;60.9
81047;SHT31;70539;51.970;5.670;2023-08-21T04:15:06;22.0;61.5
81047;SHT31;70539;51.970;5.670;2023-08-21T04:17:35;22.0;61.1
81047;SHT31;70539;51.970;5.670;2023-08-21T04:20:05;22.0;60.4
81047;SHT31;70539;51.970;5.670;2023-08-21T04:22:34;22.0;60.4
81047;SHT31;70539;51.970;5.670;2023-08-21T04:25:05;22.0;60.1
81047;SHT31;70539;51.970;5.670;2023-08-21T04:27:34;22.0;60.7
81047;SHT31;70539;51.970;5.670;2023-08-21T04:30:03;22.0;60.9
81047;SHT31;70539;51.970;5.670;2023-08-21T04:32:35;22.0;61.0
81047;SHT31;70539;51.970;5.670;2023-08-21T04:35:04;22.0;60.7
81047;SHT31;70539;51.970;5.670;2023-08-21T04:37:42;22.0;60.8
81047;SHT31;70539;51.970;5.670;2023-08-21T04:40:12;22.0;61.0
81047;SHT31;70539;51.970;5.670;2023-08-21T04:42:41;22.0;60.3
81047;SHT31;70539;51.970;5.670;2023-08-21T04:45:12;22.0;60.6
81047;SHT31;70539;51.970;5.670;2023-08-21T04:47:41;22.0;61.5
81047;SHT31;70539;51.970;5.670;2023-08-21T04:50:12;22.0;61.2
81047;SHT31;70539;51.970;5.670;2023-08-21T04:52:42;22.1;60.5
81047;SHT31;70539;51.970;5.670;2023-08-21T04:55:12;22.1;60.4
81047;SHT31;70539;51.970;5.670;2023-08-21T04:57:41;22.1;60.8
81047;SHT31;70539;51.970;5.670;2023-08-21T05:00:11;22.1;61.2
81047;SHT31;70539;51.970;5.670;2023-08-21T05:02:40;22.1;61.0
81047;SHT31;70539;51.970;5.670;2023-08-21T05:05:08;22.1;60.7
81047;SHT31;70539;51.970;5.670;2023-08-21T05:07:39;22.1;60.7
81047;SHT31;70539;51.970;5.670;2023-08-21T05:10:11;22.1;60.8
81047;SHT31;70539;51.970;5.670;2023-08-21T05:12:41;22.1;60.5
81047;SHT31;70539;51.970;5.670;2023-08-21T05:15:11;22.1;61.6
81047;SHT31;70539;51.970;5.670;2023-08-21T05:17:40;22.1;61.7
81047;SHT31;70539;51.970;5.670;2023-08-21T05:20:10;22.1;61.3
81047;SHT31;70539;51.970;5.670;2023-08-21T05:22:41;22.1;62.0
81047;SHT31;70539;51.970;5.670;2023-08-21T05:25:11;22.1;62.5
81047;SHT31;70539;51.970;5.670;2023-08-21T05:27:39;22.1;62.1
81047;SHT31;70539;51.970;5.670;2023-08-21T05:30:08;22.1;62.1
81047;SHT31;70539;51.970;5.670;2023-08-21T05:32:40;22.1;63.4
81047;SHT31;70539;51.970;5.670;2023-08-21T05:35:09;22.1;63.7
81047;SHT31;70539;51.970;5.670;2023-08-21T05:37:38;22.1;63.1
81047;SHT31;70539;51.970;5.670;2023-08-21T05:40:08;22.1;63.6
81047;SHT31;70539;51.970;5.670;2023-08-21T05:42:36;22.1;64.4
81047;SHT31;70539;51.970;5.670;2023-08-21T05:45:06;22.1;64.4
81047;SHT31;70539;51.970;5.670;2023-08-21T05:47:35;22.2;64.8
81047;SHT31;70539;51.970;5.670;2023-08-21T05:50:04;22.3;65.0
81047;SHT31;70539;51.970;5.670;2023-08-21T05:52:33;22.3;64.3
81047;SHT31;70539;51.970;5.670;2023-08-21T05:55:01;22.4;65.3
81047;SHT31;70539;51.970;5.670;2023-08-21T05:57:30;22.4;64.7
81047;SHT31;70539;51.970;5.670;2023-08-21T05:59:58;22.5;64.7
81047;SHT31;70539;51.970;5.670;2023-08-21T06:02:27;22.6;65.0
81047;SHT31;70539;51.970;5.670;2023-08-21T06:04:56;22.6;64.6
81047;SHT31;70539;51.970;5.670;2023-08-21T06:07:24;22.7;64.6
81047;SHT31;70539;51.970;5.670;2023-08-21T06:09:53;22.8;63.9
81047;SHT31;70539;51.970;5.670;2023-08-21T06:12:23;22.9;64.0
81047;SHT31;70539;51.970;5.670;2023-08-21T06:14:51;23.0;64.5
81047;SHT31;70539;51.970;5.670;2023-08-21T06:17:20;23.0;64.3
81047;SHT31;70539;51.970;5.670;2023-08-21T06:19:48;23.1;63.8
81047;SHT31;70539;51.970;5.670;2023-08-21T06:22:17;23.2;64.0
81047;SHT31;70539;51.970;5.670;2023-08-21T06:24:45;23.3;63.9
81047;SHT31;70539;51.970;5.670;2023-08-21T06:27:14;23.4;65.0
81047;SHT31;70539;51.970;5.670;2023-08-21T06:29:42;23.5;64.1
81047;SHT31;70539;51.970;5.670;2023-08-21T06:32:11;23.6;64.4
81047;SHT31;70539;51.970;5.670;2023-08-21T06:34:39;23.8;62.2
81047;SHT31;70539;51.970;5.670;2023-08-21T06:37:08;23.9;62.5
81047;SHT31;70539;51.970;5.670;2023-08-21T06:39:39;24.1;62.5
81047;SHT31;70539;51.970;5.670;2023-08-21T06:42:07;24.2;61.3
81047;SHT31;70539;51.970;5.670;2023-08-21T06:44:36;24.4;60.2
81047;SHT31;70539;51.970;5.670;2023-08-21T06:47:05;24.5;59.5
81047;SHT31;70539;51.970;5.670;2023-08-21T06:49:33;24.6;57.5
81047;SHT31;70539;51.970;5.670;2023-08-21T06:52:02;24.6;58.1
81047;SHT31;70539;51.970;5.670;2023-08-21T06:54:31;24.7;58.0
81047;SHT31;70539;51.970;5.670;2023-08-21T06:57:01;24.7;57.8
81047;SHT31;70539;51.970;5.670;2023-08-21T06:59:30;24.8;59.0
81047;SHT31;70539;51.970;5.670;2023-08-21T07:02:02;24.9;58.1
81047;SHT31;70539;51.970;5.670;2023-08-21T07:04:33;25.0;56.7
81047;SHT31;70539;51.970;5.670;2023-08-21T07:07:01;25.1;56.2
81047;SHT31;70539;51.970;5.670;2023-08-21T07:09:30;25.3;55.9
81047;SHT31;70539;51.970;5.670;2023-08-21T07:11:58;25.4;57.5
81047;SHT31;70539;51.970;5.670;2023-08-21T07:14:28;25.7;56.6
81047;SHT31;70539;51.970;5.670;2023-08-21T07:16:56;25.9;55.8
81047;SHT31;70539;51.970;5.670;2023-08-21T07:19:25;26.1;54.7
81047;SHT31;70539;51.970;5.670;2023-08-21T07:21:53;26.3;55.4
81047;SHT31;70539;51.970;5.670;2023-08-21T07:24:22;26.5;53.1
81047;SHT31;70539;51.970;5.670;2023-08-21T07:26:51;26.6;54.5
81047;SHT31;70539;51.970;5.670;2023-08-21T07:29:19;26.8;53.4
81047;SHT31;70539;51.970;5.670;2023-08-21T07:31:48;27.0;51.6
81047;SHT31;70539;51.970;5.670;2023-08-21T07:34:16;27.2;51.0
81047;SHT31;70539;51.970;5.670;2023-08-21T07:36:45;27.3;51.6
81047;SHT31;70539;51.970;5.670;2023-08-21T07:39:13;27.5;53.4
81047;SHT31;70539;51.970;5.670;2023-08-21T07:41:41;27.9;52.8
81047;SHT31;70539;51.970;5.670;2023-08-21T07:44:10;28.4;51.1
81047;SHT31;70539;51.970;5.670;2023-08-21T07:46:39;28.9;51.5
81047;SHT31;70539;51.970;5.670;2023-08-21T07:49:07;29.5;46.2
81047;SHT31;70539;51.970;5.670;2023-08-21T07:51:36;29.9;47.2
81047;SHT31;70539;51.970;5.670;2023-08-21T07:54:05;30.2;47.2
81047;SHT31;70539;51.970;5.670;2023-08-21T07:56:33;30.4;45.6
81047;SHT31;70539;51.970;5.670;2023-08-21T07:59:02;30.5;44.6
81047;SHT31;70539;51.970;5.670;2023-08-21T08:01:30;30.6;45.3
81047;SHT31;70539;51.970;5.670;2023-08-21T08:03:59;30.6;46.3
81047;SHT31;70539;51.970;5.670;2023-08-21T08:06:29;30.8;43.6
81047;SHT31;70539;51.970;5.670;2023-08-21T08:08:57;31.0;43.2
81047;SHT31;70539;51.970;5.670;2023-08-21T08:11:26;31.2;44.9
81047;SHT31;70539;51.970;5.670;2023-08-21T08:13:55;31.4;42.0
81047;SHT31;70539;51.970;5.670;2023-08-21T08:16:24;31.5;43.0
81047;SHT31;70539;51.970;5.670;2023-08-21T08:18:53;31.7;43.5
81047;SHT31;70539;51.970;5.670;2023-08-21T08:21:23;31.8;43.6
81047;SHT31;70539;51.970;5.670;2023-08-21T08:23:52;31.8;43.9
81047;SHT31;70539;51.970;5.670;2023-08-21T08:26:20;31.9;45.0
81047;SHT31;70539;51.970;5.670;2023-08-21T08:28:48;32.0;44.0
81047;SHT31;70539;51.970;5.670;2023-08-21T08:31:18;32.2;42.1
81047;SHT31;70539;51.970;5.670;2023-08-21T08:33:46;32.3;44.0
81047;SHT31;70539;51.970;5.670;2023-08-21T08:36:16;32.6;44.9
81047;SHT31;70539;51.970;5.670;2023-08-21T08:38:44;33.2;43.1
81047;SHT31;70539;51.970;5.670;2023-08-21T08:41:25;34.0;41.2
81047;SHT31;70539;51.970;5.670;2023-08-21T08:43:57;35.2;39.2
81047;SHT31;70539;51.970;5.670;2023-08-21T08:46:29;36.5;37.2
81047;SHT31;70539;51.970;5.670;2023-08-21T08:48:58;37.3;34.7
81047;SHT31;70539;51.970;5.670;2023-08-21T08:51:32;37.7;34.4
81047;SHT31;70539;51.970;5.670;2023-08-21T08:54:06;38.1;32.8
81047;SHT31;70539;51.970;5.670;2023-08-21T08:56:35;38.4;32.8
81047;SHT31;70539;51.970;5.670;2023-08-21T08:59:07;38.7;32.7
81047;SHT31;70539;51.970;5.670;2023-08-21T09:01:37;38.9;31.7
81047;SHT31;70539;51.970;5.670;2023-08-21T09:04:05;39.0;32.0
81047;SHT31;70539;51.970;5.670;2023-08-21T09:06:35;39.0;31.3
81047;SHT31;70539;51.970;5.670;2023-08-21T09:09:04;39.0;31.1
81047;SHT31;70539;51.970;5.670;2023-08-21T09:11:34;38.9;30.5
81047;SHT31;70539;51.970;5.670;2023-08-21T09:14:05;38.7;30.6
81047;SHT31;70539;51.970;5.670;2023-08-21T09:16:33;38.6;32.8
81047;SHT31;70539;51.970;5.670;2023-08-21T09:19:02;38.6;31.9
81047;SHT31;70539;51.970;5.670;2023-08-21T09:21:31;38.5;32.6
81047;SHT31;70539;51.970;5.670;2023-08-21T09:24:01;38.5;30.5
81047;SHT31;70539;51.970;5.670;2023-08-21T09:26:32;38.5;31.1
81047;SHT31;70539;51.970;5.670;2023-08-21T09:29:04;38.5;32.1
81047;SHT31;70539;51.970;5.670;2023-08-21T09:31:33;38.5;32.1
81047;SHT31;70539;51.970;5.670;2023-08-21T09:34:05;38.7;33.0
81047;SHT31;70539;51.970;5.670;2023-08-21T09:36:34;39.0;32.1
81047;SHT31;70539;51.970;5.670;2023-08-21T09:39:05;39.5;31.8
81047;SHT31;70539;51.970;5.670;2023-08-21T09:41:36;40.0;30.4
81047;SHT31;70539;51.970;5.670;2023-08-21T09:44:09;40.5;29.7
81047;SHT31;70539;51.970;5.670;2023-08-21T09:46:40;40.8;29.2
81047;SHT31;70539;51.970;5.670;2023-08-21T09:49:09;41.0;27.4
81047;SHT31;70539;51.970;5.670;2023-08-21T09:51:40;41.0;27.6
81047;SHT31;70539;51.970;5.670;2023-08-21T09:54:11;41.0;29.0
81047;SHT31;70539;51.970;5.670;2023-08-21T09:56:42;40.9;28.7
81047;SHT31;70539;51.970;5.670;2023-08-21T09:59:14;41.0;27.4
81047;SHT31;70539;51.970;5.670;2023-08-21T10:01:47;41.2;27.3
81047;SHT31;70539;51.970;5.670;2023-08-21T10:04:22;41.2;28.3
81047;SHT31;70539;51.970;5.670;2023-08-21T10:06:54;41.2;28.9
81047;SHT31;70539;51.970;5.670;2023-08-21T10:09:24;41.2;28.7
81047;SHT31;70539;51.970;5.670;2023-08-21T10:11:55;41.3;28.3
81047;SHT31;70539;51.970;5.670;2023-08-21T10:14:27;41.4;28.3
81047;SHT31;70539;51.970;5.670;2023-08-21T10:16:56;41.5;28.8
81047;SHT31;70539;51.970;5.670;2023-08-21T10:19:34;41.7;27.5
81047;SHT31;70539;51.970;5.670;2023-08-21T10:22:03;41.9;27.4
81047;SHT31;70539;51.970;5.670;2023-08-21T10:24:36;42.0;27.7
81047;SHT31;70539;51.970;5.670;2023-08-21T10:27:06;42.1;27.8
81047;SHT31;70539;51.970;5.670;2023-08-21T10:29:36;42.1;26.6
81047;SHT31;70539;51.970;5.670;2023-08-21T10:32:06;42.1;27.5
81047;SHT31;70539;51.970;5.670;2023-08-21T10:34:37;42.1;26.8
81047;SHT31;70539;51.970;5.670;2023-08-21T10:37:08;41.9;26.6
81047;SHT31;70539;51.970;5.670;2023-08-21T10:39:56;41.7;27.5
81047;SHT31;70539;51.970;5.670;2023-08-21T10:42:39;41.6;27.4
81047;SHT31;70539;51.970;5.670;2023-08-21T10:45:12;41.5;25.8
81047;SHT31;70539;51.970;5.670;2023-08-21T10:47:41;41.2;26.0
81047;SHT31;70539;51.970;5.670;2023-08-21T10:50:12;40.5;26.6
81047;SHT31;70539;51.970;5.670;2023-08-21T10:52:42;39.7;29.4
81047;SHT31;70539;51.970;5.670;2023-08-21T10:55:14;39.3;29.2
81047;SHT31;70539;51.970;5.670;2023-08-21T10:57:47;39.2;29.1
81047;SHT31;70539;51.970;5.670;2023-08-21T11:00:18;39.1;30.0
81047;SHT31;70539;51.970;5.670;2023-08-21T11:02:49;39.0;29.3
81047;SHT31;70539;51.970;5.670;2023-08-21T11:05:18;39.0;29.6
81047;SHT31;70539;51.970;5.670;2023-08-21T11:07:48;39.0;28.2
81047;SHT31;70539;51.970;5.670;2023-08-21T11:10:21;39.0;28.9
81047;SHT31;70539;51.970;5.670;2023-08-21T11:12:52;39.0;28.7
81047;SHT31;70539;51.970;5.670;2023-08-21T11:15:22;39.0;27.8
81047;SHT31;70539;51.970;5.670;2023-08-21T11:17:57;39.0;29.5
81047;SHT31;70539;51.970;5.670;2023-08-21T11:20:29;39.0;28.9
81047;SHT31;70539;51.970;5.670;2023-08-21T11:23:00;39.0;28.8
81047;SHT31;70539;51.970;5.670;2023-08-21T11:25:29;39.0;27.2
81047;SHT31;70539;51.970;5.670;2023-08-21T11:28:00;39.0;27.2
81047;SHT31;70539;51.970;5.670;2023-08-21T11:30:32;38.9;28.2
81047;SHT31;70539;51.970;5.670;2023-08-21T11:33:09;38.8;28.8
81047;SHT31;70539;51.970;5.670;2023-08-21T11:35:39;38.6;28.3
81047;SHT31;70539;51.970;5.670;2023-08-21T11:38:16;38.6;29.4
81047;SHT31;70539;51.970;5.670;2023-08-21T11:40:54;38.5;29.6
81047;SHT31;70539;51.970;5.670;2023-08-21T11:43:38;38.5;28.9
81047;SHT31;70539;51.970;5.670;2023-08-21T11:46:09;38.6;28.8
81047;SHT31;70539;51.970;5.670;2023-08-21T11:48:41;38.6;27.9
81047;SHT31;70539;51.970;5.670;2023-08-21T11:51:11;38.5;28.7
81047;SHT31;70539;51.970;5.670;2023-08-21T11:53:41;38.3;29.5
81047;SHT31;70539;51.970;5.670;2023-08-21T11:56:14;38.2;29.1
81047;SHT31;70539;51.970;5.670;2023-08-21T11:58:45;38.1;29.7
81047;SHT31;70539;51.970;5.670;2023-08-21T12:01:19;38.0;28.8
81047;SHT31;70539;51.970;5.670;2023-08-21T12:03:48;37.9;29.5
81047;SHT31;70539;51.970;5.670;2023-08-21T12:06:22;37.8;30.3
81047;SHT31;70539;51.970;5.670;2023-08-21T12:08:52;37.7;30.7
81047;SHT31;70539;51.970;5.670;2023-08-21T12:11:21;37.6;30.4
81047;SHT31;70539;51.970;5.670;2023-08-21T12:13:50;37.6;30.9
81047;SHT31;70539;51.970;5.670;2023-08-21T12:16:20;37.5;31.0
81047;SHT31;70539;51.970;5.670;2023-08-21T12:18:51;37.5;30.8
81047;SHT31;70539;51.970;5.670;2023-08-21T12:21:21;37.4;30.8
81047;SHT31;70539;51.970;5.670;2023-08-21T12:23:50;37.4;30.1
81047;SHT31;70539;51.970;5.670;2023-08-21T12:26:18;37.3;30.5
81047;SHT31;70539;51.970;5.670;2023-08-21T12:28:49;37.2;30.0
81047;SHT31;70539;51.970;5.670;2023-08-21T12:31:18;37.1;30.4
81047;SHT31;70539;51.970;5.670;2023-08-21T12:33:47;37.0;30.0
81047;SHT31;70539;51.970;5.670;2023-08-21T12:36:16;36.9;30.1
81047;SHT31;70539;51.970;5.670;2023-08-21T12:38:44;36.8;28.4
81047;SHT31;70539;51.970;5.670;2023-08-21T12:41:13;36.6;29.9
81047;SHT31;70539;51.970;5.670;2023-08-21T12:43:42;36.3;32.0
81047;SHT31;70539;51.970;5.670;2023-08-21T12:46:10;36.1;30.6
81047;SHT31;70539;51.970;5.670;2023-08-21T12:48:39;35.9;31.3
81047;SHT31;70539;51.970;5.670;2023-08-21T12:51:08;35.8;30.5
81047;SHT31;70539;51.970;5.670;2023-08-21T12:53:37;35.7;31.5
81047;SHT31;70539;51.970;5.670;2023-08-21T12:56:07;35.6;30.5
81047;SHT31;70539;51.970;5.670;2023-08-21T12:58:36;35.5;30.5
81047;SHT31;70539;51.970;5.670;2023-08-21T13:01:04;35.5;30.0
81047;SHT31;70539;51.970;5.670;2023-08-21T13:03:33;35.4;30.0
81047;SHT31;70539;51.970;5.670;2023-08-21T13:06:02;35.3;30.5
81047;SHT31;70539;51.970;5.670;2023-08-21T13:08:30;35.3;30.4
81047;SHT31;70539;51.970;5.670;2023-08-21T13:10:59;35.3;29.9
81047;SHT31;70539;51.970;5.670;2023-08-21T13:13:29;35.2;29.6
81047;SHT31;70539;51.970;5.670;2023-08-21T13:15:58;35.2;29.5
81047;SHT31;70539;51.970;5.670;2023-08-21T13:18:27;35.1;29.5
81047;SHT31;70539;51.970;5.670;2023-08-21T13:20:55;35.0;29.8
81047;SHT31;70539;51.970;5.670;2023-08-21T13:23:28;34.9;30.1
81047;SHT31;70539;51.970;5.670;2023-08-21T13:25:57;34.9;32.0
81047;SHT31;70539;51.970;5.670;2023-08-21T13:28:26;34.9;32.3
81047;SHT31;70539;51.970;5.670;2023-08-21T13:30:54;34.9;32.9
81047;SHT31;70539;51.970;5.670;2023-08-21T13:33:22;34.9;33.2
81047;SHT31;70539;51.970;5.670;2023-08-21T13:35:52;34.9;32.8
81047;SHT31;70539;51.970;5.670;2023-08-21T13:38:23;34.9;32.2
81047;SHT31;70539;51.970;5.670;2023-08-21T13:40:51;34.9;32.8
81047;SHT31;70539;51.970;5.670;2023-08-21T13:43:20;34.9;31.3
81047;SHT31;70539;51.970;5.670;2023-08-21T13:45:48;34.8;31.3
81047;SHT31;70539;51.970;5.670;2023-08-21T13:48:17;34.7;31.8
81047;SHT31;70539;51.970;5.670;2023-08-21T13:50:46;34.7;31.0
81047;SHT31;70539;51.970;5.670;2023-08-21T13:53:15;34.6;31.0
81047;SHT31;70539;51.970;5.670;2023-08-21T13:55:44;34.5;31.5
81047;SHT31;70539;51.970;5.670;2023-08-21T13:58:13;34.5;32.2
81047;SHT31;70539;51.970;5.670;2023-08-21T14:00:42;34.5;32.3
81047;SHT31;70539;51.970;5.670;2023-08-21T14:03:11;34.4;31.3
81047;SHT31;70539;51.970;5.670;2023-08-21T14:05:40;34.4;32.5
81047;SHT31;70539;51.970;5.670;2023-08-21T14:08:08;34.3;32.2
81047;SHT31;70539;51.970;5.670;2023-08-21T14:10:37;34.3;32.2
81047;SHT31;70539;51.970;5.670;2023-08-21T14:13:07;34.2;32.2
81047;SHT31;70539;51.970;5.670;2023-08-21T14:15:38;34.2;32.2
81047;SHT31;70539;51.970;5.670;2023-08-21T14:18:07;34.1;32.6
81047;SHT31;70539;51.970;5.670;2023-08-21T14:20:37;34.0;33.1
81047;SHT31;70539;51.970;5.670;2023-08-21T14:23:06;34.0;33.0
81047;SHT31;70539;51.970;5.670;2023-08-21T14:25:35;33.9;33.7
81047;SHT31;70539;51.970;5.670;2023-08-21T14:28:05;33.9;34.2
81047;SHT31;70539;51.970;5.670;2023-08-21T14:30:34;33.9;33.5
81047;SHT31;70539;51.970;5.670;2023-08-21T14:33:03;33.8;34.2
81047;SHT31;70539;51.970;5.670;2023-08-21T14:35:32;33.8;33.6
81047;SHT31;70539;51.970;5.670;2023-08-21T14:38:00;33.8;34.1
81047;SHT31;70539;51.970;5.670;2023-08-21T14:40:29;33.8;34.6
81047;SHT31;70539;51.970;5.670;2023-08-21T14:42:57;33.8;35.2
81047;SHT31;70539;51.970;5.670;2023-08-21T14:45:26;33.9;33.7
81047;SHT31;70539;51.970;5.670;2023-08-21T14:47:55;33.9;32.9
81047;SHT31;70539;51.970;5.670;2023-08-21T14:50:23;33.9;33.4
81047;SHT31;70539;51.970;5.670;2023-08-21T14:52:52;33.9;33.0
81047;SHT31;70539;51.970;5.670;2023-08-21T14:55:20;33.9;31.6
81047;SHT31;70539;51.970;5.670;2023-08-21T14:57:49;33.8;32.7
81047;SHT31;70539;51.970;5.670;2023-08-21T15:00:17;33.7;32.9
81047;SHT31;70539;51.970;5.670;2023-08-21T15:02:46;33.7;32.3
81047;SHT31;70539;51.970;5.670;2023-08-21T15:05:14;33.7;32.1
81047;SHT31;70539;51.970;5.670;2023-08-21T15:07:43;33.7;32.7
81047;SHT31;70539;51.970;5.670;2023-08-21T15:10:12;33.7;32.0
81047;SHT31;70539;51.970;5.670;2023-08-21T15:12:41;33.8;32.0
81047;SHT31;70539;51.970;5.670;2023-08-21T15:15:12;33.8;31.6
81047;SHT31;70539;51.970;5.670;2023-08-21T15:17:41;33.7;31.0
81047;SHT31;70539;51.970;5.670;2023-08-21T15:20:12;33.7;31.5
81047;SHT31;70539;51.970;5.670;2023-08-21T15:22:42;33.6;31.8
81047;SHT31;70539;51.970;5.670;2023-08-21T15:25:13;33.5;32.2
81047;SHT31;70539;51.970;5.670;2023-08-21T15:27:41;33.5;31.2
81047;SHT31;70539;51.970;5.670;2023-08-21T15:30:11;33.4;31.9
81047;SHT31;70539;51.970;5.670;2023-08-21T15:32:40;33.3;31.8
81047;SHT31;70539;51.970;5.670;2023-08-21T15:35:11;33.2;32.6
81047;SHT31;70539;51.970;5.670;2023-08-21T15:37:41;33.1;33.0
81047;SHT31;70539;51.970;5.670;2023-08-21T15:40:11;33.1;32.8
81047;SHT31;70539;51.970;5.670;2023-08-21T15:42:40;33.0;33.2
81047;SHT31;70539;51.970;5.670;2023-08-21T15:45:09;33.0;32.4
81047;SHT31;70539;51.970;5.670;2023-08-21T15:47:38;32.9;33.0
81047;SHT31;70539;51.970;5.670;2023-08-21T15:50:07;32.8;32.8
81047;SHT31;70539;51.970;5.670;2023-08-21T15:52:38;32.8;31.8
81047;SHT31;70539;51.970;5.670;2023-08-21T15:55:08;32.7;32.7
81047;SHT31;70539;51.970;5.670;2023-08-21T15:57:37;32.7;34.3
81047;SHT31;70539;51.970;5.670;2023-08-21T16:00:07;32.6;34.1
81047;SHT31;70539;51.970;5.670;2023-08-21T16:02:38;32.6;34.8
81047;SHT31;70539;51.970;5.670;2023-08-21T16:05:08;32.5;35.2
81047;SHT31;70539;51.970;5.670;2023-08-21T16:07:37;32.5;35.0
81047;SHT31;70539;51.970;5.670;2023-08-21T16:10:08;32.5;35.7
81047;SHT31;70539;51.970;5.670;2023-08-21T16:12:37;32.5;35.6
81047;SHT31;70539;51.970;5.670;2023-08-21T16:15:07;32.4;35.4
81047;SHT31;70539;51.970;5.670;2023-08-21T16:17:35;32.4;34.4